createdAt,value
2017-12-12T00:00:29.531Z,5.15
2017-12-12T00:01:10.025Z,5.06
2017-12-12T00:01:50.523Z,4.99
2017-12-12T00:02:31.021Z,5.02
2017-12-12T00:03:11.553Z,4.94
2017-12-12T00:03:52.164Z,4.86
2017-12-12T00:04:32.728Z,4.78
2017-12-12T00:05:13.233Z,4.77
2017-12-12T00:05:53.759Z,4.66
2017-12-12T00:06:34.279Z,4.62
2017-12-12T00:07:14.800Z,4.51
2017-12-12T00:07:55.319Z,4.51
2017-12-12T00:08:35.853Z,4.41
2017-12-12T00:09:16.345Z,4.42
2017-12-12T00:09:56.876Z,4.45
2017-12-12T00:10:37.418Z,4.42
2017-12-12T00:11:17.904Z,4.4
2017-12-12T00:11:58.436Z,4.22
2017-12-12T00:12:38.933Z,4.34
2017-12-12T00:13:19.447Z,4.23
2017-12-12T00:13:59.949Z,4.12
2017-12-12T00:14:40.466Z,4.11
2017-12-12T00:15:20.992Z,4.05
2017-12-12T00:16:01.501Z,3.91
2017-12-12T00:16:42.012Z,3.96
2017-12-12T00:17:22.543Z,3.88
2017-12-12T00:18:03.061Z,3.79
2017-12-12T00:18:43.574Z,3.73
2017-12-12T00:19:24.136Z,3.72
2017-12-12T00:20:04.675Z,3.72
2017-12-12T00:20:45.201Z,3.73
2017-12-12T00:21:25.699Z,3.72
2017-12-12T00:22:06.218Z,3.65
2017-12-12T00:22:46.745Z,3.65
2017-12-12T00:23:27.262Z,3.6
2017-12-12T00:24:07.740Z,3.62
2017-12-12T00:24:48.260Z,3.68
2017-12-12T00:25:28.774Z,3.69
2017-12-12T00:26:09.259Z,3.61
2017-12-12T00:26:49.758Z,3.52
2017-12-12T00:27:30.262Z,3.6
2017-12-12T00:28:10.761Z,3.55
2017-12-12T00:28:51.262Z,3.61
2017-12-12T00:29:31.765Z,3.65
2017-12-12T00:30:12.286Z,3.62
2017-12-12T00:30:52.808Z,3.57
2017-12-12T00:31:33.340Z,3.62
2017-12-12T00:32:13.819Z,3.61
2017-12-12T00:32:54.376Z,3.62
2017-12-12T00:33:34.866Z,3.62
2017-12-12T00:34:15.378Z,3.6
2017-12-12T00:34:55.893Z,3.65
2017-12-12T00:35:36.450Z,3.58
2017-12-12T00:36:16.985Z,3.61
2017-12-12T00:36:57.469Z,3.65
2017-12-12T00:37:37.983Z,3.57
2017-12-12T00:38:18.482Z,3.65
2017-12-12T00:38:59.008Z,3.55
2017-12-12T00:39:39.523Z,3.54
2017-12-12T00:40:20.020Z,3.54
2017-12-12T00:41:00.525Z,3.54
2017-12-12T00:41:41.021Z,3.51
2017-12-12T00:42:21.533Z,3.55
2017-12-12T00:43:02.060Z,3.6
2017-12-12T00:43:42.546Z,3.54
2017-12-12T00:44:23.066Z,3.61
2017-12-12T00:45:03.612Z,3.6
2017-12-12T00:45:44.072Z,3.6
2017-12-12T00:46:24.571Z,3.65
2017-12-12T00:47:05.098Z,3.57
2017-12-12T00:47:45.617Z,3.58
2017-12-12T00:48:26.120Z,3.65
2017-12-12T00:49:06.618Z,3.62
2017-12-12T00:49:47.165Z,3.54
2017-12-12T00:50:27.668Z,3.57
2017-12-12T00:51:08.182Z,3.58
2017-12-12T00:51:48.714Z,3.57
2017-12-12T00:52:29.226Z,3.61
2017-12-12T00:53:09.728Z,3.58
2017-12-12T00:53:50.228Z,3.54
2017-12-12T00:54:30.770Z,3.51
2017-12-12T00:55:11.321Z,3.43
2017-12-12T00:55:51.816Z,3.58
2017-12-12T00:56:32.318Z,3.45
2017-12-12T00:57:12.825Z,3.54
2017-12-12T00:57:53.306Z,3.5
2017-12-12T00:58:33.790Z,3.52
2017-12-12T00:59:14.359Z,3.5
2017-12-12T00:59:54.849Z,3.39
2017-12-12T01:00:35.356Z,3.48
2017-12-12T01:01:15.848Z,3.43
2017-12-12T01:01:56.391Z,3.39
2017-12-12T01:02:36.906Z,3.36
2017-12-12T01:03:17.429Z,3.32
2017-12-12T01:03:57.906Z,3.39
2017-12-12T01:04:38.446Z,3.24
2017-12-12T01:05:19.013Z,3.21
2017-12-12T01:05:59.471Z,3.24
2017-12-12T01:06:39.987Z,3.26
2017-12-12T01:07:20.464Z,3.35
2017-12-12T01:08:00.999Z,3.21
2017-12-12T01:08:41.507Z,3.21
2017-12-12T01:09:22.005Z,3.28
2017-12-12T01:10:02.516Z,3.26
2017-12-12T01:10:43.031Z,3.21
2017-12-12T01:11:23.573Z,3.18
2017-12-12T01:12:04.118Z,3.24
2017-12-12T01:12:44.612Z,3.24
2017-12-12T01:13:25.108Z,3.23
2017-12-12T01:14:05.621Z,3.28
2017-12-12T01:14:46.122Z,3.28
2017-12-12T01:15:26.643Z,3.2
2017-12-12T01:16:07.139Z,3.21
2017-12-12T01:16:47.644Z,3.13
2017-12-12T01:17:28.160Z,3.14
2017-12-12T01:18:08.686Z,3.11
2017-12-12T01:18:49.209Z,3.06
2017-12-12T01:19:29.682Z,3.13
2017-12-12T01:20:10.173Z,3.03
2017-12-12T01:20:50.690Z,2.97
2017-12-12T01:21:31.209Z,2.99
2017-12-12T01:22:11.704Z,2.95
2017-12-12T01:22:52.213Z,2.9
2017-12-12T01:23:32.712Z,2.96
2017-12-12T01:24:13.225Z,2.85
2017-12-12T01:24:53.724Z,2.9
2017-12-12T01:25:34.330Z,2.9
2017-12-12T01:26:14.766Z,2.85
2017-12-12T01:26:55.273Z,2.82
2017-12-12T01:27:35.808Z,2.92
2017-12-12T01:28:16.289Z,2.87
2017-12-12T01:28:56.800Z,2.84
2017-12-12T01:29:37.316Z,2.77
2017-12-12T01:30:17.814Z,2.87
2017-12-12T01:30:58.317Z,2.81
2017-12-12T01:31:38.826Z,2.87
2017-12-12T01:32:19.315Z,2.81
2017-12-12T01:32:59.855Z,2.77
2017-12-12T01:33:40.351Z,2.84
2017-12-12T01:34:20.867Z,2.79
2017-12-12T01:35:01.388Z,2.89
2017-12-12T01:35:41.900Z,2.93
2017-12-12T01:36:22.423Z,2.9
2017-12-12T01:37:02.978Z,2.82
2017-12-12T01:37:43.416Z,2.92
2017-12-12T01:38:23.938Z,2.89
2017-12-12T01:39:04.494Z,2.84
2017-12-12T01:39:44.945Z,2.87
2017-12-12T01:40:25.455Z,2.87
2017-12-12T01:41:05.963Z,2.84
2017-12-12T01:41:46.455Z,2.95
2017-12-12T01:42:26.981Z,2.81
2017-12-12T01:43:07.484Z,2.95
2017-12-12T01:43:48.012Z,2.9
2017-12-12T01:44:35.507Z,2.85
2017-12-12T01:45:16.125Z,2.93
2017-12-12T01:45:56.663Z,2.87
2017-12-12T01:46:37.204Z,2.85
2017-12-12T01:47:17.684Z,2.9
2017-12-12T01:47:58.201Z,2.89
2017-12-12T01:48:38.699Z,2.87
2017-12-12T01:49:19.209Z,2.9
2017-12-12T01:49:59.714Z,2.93
2017-12-12T01:50:40.204Z,2.96
2017-12-12T01:51:20.692Z,2.95
2017-12-12T01:52:01.228Z,2.95
2017-12-12T01:52:44.530Z,2.96
2017-12-12T01:53:24.994Z,2.93
2017-12-12T01:54:05.507Z,2.96
2017-12-12T01:54:46.025Z,2.95
2017-12-12T01:55:26.566Z,2.93
2017-12-12T01:56:07.058Z,2.93
2017-12-12T01:56:47.570Z,2.93
2017-12-12T01:57:28.097Z,2.87
2017-12-12T01:58:08.585Z,2.89
2017-12-12T01:58:55.933Z,2.95
2017-12-12T01:59:36.429Z,2.85
2017-12-12T02:00:16.944Z,2.79
2017-12-12T02:00:57.435Z,2.9
2017-12-12T02:01:38.017Z,2.89
2017-12-12T02:02:18.555Z,2.92
2017-12-12T02:02:59.076Z,2.9
2017-12-12T02:03:40.233Z,2.89
2017-12-12T02:04:20.760Z,2.9
2017-12-12T02:05:01.264Z,2.84
2017-12-12T02:05:41.786Z,2.87
2017-12-12T02:06:22.291Z,2.9
2017-12-12T02:07:02.791Z,2.85
2017-12-12T02:07:43.317Z,2.84
2017-12-12T02:08:23.821Z,2.9
2017-12-12T02:09:04.336Z,2.87
2017-12-12T02:09:44.866Z,2.89
2017-12-12T02:10:25.369Z,2.93
2017-12-12T02:11:05.903Z,2.92
2017-12-12T02:11:46.405Z,2.79
2017-12-12T02:12:26.906Z,2.81
2017-12-12T02:13:07.419Z,2.87
2017-12-12T02:13:47.946Z,2.82
2017-12-12T02:14:28.431Z,2.82
2017-12-12T02:15:08.973Z,2.92
2017-12-12T02:15:49.471Z,2.79
2017-12-12T02:16:29.979Z,2.84
2017-12-12T02:17:10.519Z,2.84
2017-12-12T02:17:51.013Z,2.92
2017-12-12T02:18:31.539Z,2.84
2017-12-12T02:19:12.048Z,2.87
2017-12-12T02:19:52.572Z,2.85
2017-12-12T02:20:33.080Z,2.92
2017-12-12T02:21:13.568Z,2.93
2017-12-12T02:21:54.069Z,2.81
2017-12-12T02:22:34.617Z,2.81
2017-12-12T02:23:15.106Z,2.82
2017-12-12T02:23:55.602Z,2.85
2017-12-12T02:24:36.152Z,2.9
2017-12-12T02:25:16.661Z,2.81
2017-12-12T02:25:57.153Z,2.81
2017-12-12T02:26:37.690Z,2.79
2017-12-12T02:27:18.211Z,2.85
2017-12-12T02:27:58.742Z,2.84
2017-12-12T02:28:39.249Z,2.82
2017-12-12T02:29:19.815Z,2.81
2017-12-12T02:30:00.335Z,2.69
2017-12-12T02:30:40.861Z,2.82
2017-12-12T02:31:21.372Z,2.77
2017-12-12T02:32:01.902Z,2.79
2017-12-12T02:32:42.409Z,2.72
2017-12-12T02:33:22.919Z,2.78
2017-12-12T02:34:03.466Z,2.75
2017-12-12T02:34:43.930Z,2.75
2017-12-12T02:35:24.456Z,2.77
2017-12-12T02:36:04.968Z,2.74
2017-12-12T02:36:45.471Z,2.81
2017-12-12T02:37:26.013Z,2.77
2017-12-12T02:38:06.506Z,2.78
2017-12-12T02:38:46.999Z,2.71
2017-12-12T02:39:27.523Z,2.69
2017-12-12T02:40:08.046Z,2.67
2017-12-12T02:40:48.563Z,2.71
2017-12-12T02:41:29.081Z,2.66
2017-12-12T02:42:09.583Z,2.66
2017-12-12T02:42:50.098Z,2.67
2017-12-12T02:43:30.626Z,2.66
2017-12-12T02:44:11.150Z,2.64
2017-12-12T02:44:51.668Z,2.61
2017-12-12T02:45:32.163Z,2.63
2017-12-12T02:46:12.685Z,2.59
2017-12-12T02:46:53.182Z,2.59
2017-12-12T02:47:33.718Z,2.69
2017-12-12T02:48:14.260Z,2.6
2017-12-12T02:48:54.759Z,2.72
2017-12-12T02:49:35.267Z,2.72
2017-12-12T02:50:15.848Z,2.66
2017-12-12T02:50:56.317Z,2.71
2017-12-12T02:51:36.852Z,2.61
2017-12-12T02:52:17.359Z,2.56
2017-12-12T02:52:57.877Z,2.66
2017-12-12T02:53:38.394Z,2.66
2017-12-12T02:54:18.975Z,2.64
2017-12-12T02:54:59.514Z,2.63
2017-12-12T02:55:40.037Z,2.75
2017-12-12T02:56:20.546Z,2.63
2017-12-12T02:57:01.135Z,2.64
2017-12-12T02:57:41.616Z,2.61
2017-12-12T02:58:22.168Z,2.72
2017-12-12T02:59:02.687Z,2.66
2017-12-12T02:59:43.213Z,2.69
2017-12-12T03:00:23.720Z,2.77
2017-12-12T03:01:04.235Z,2.69
2017-12-12T03:01:44.742Z,2.6
2017-12-12T03:02:25.264Z,2.63
2017-12-12T03:03:05.784Z,2.74
2017-12-12T03:03:46.350Z,2.71
2017-12-12T03:04:26.823Z,2.72
2017-12-12T03:05:07.378Z,2.69
2017-12-12T03:05:47.870Z,2.72
2017-12-12T03:06:28.374Z,2.67
2017-12-12T03:07:08.873Z,2.72
2017-12-12T03:07:49.431Z,2.72
2017-12-12T03:08:29.934Z,2.72
2017-12-12T03:09:10.456Z,2.78
2017-12-12T03:09:50.970Z,2.71
2017-12-12T03:10:31.535Z,2.69
2017-12-12T03:11:11.988Z,2.77
2017-12-12T03:11:52.495Z,2.61
2017-12-12T03:12:33.025Z,2.66
2017-12-12T03:13:13.533Z,2.6
2017-12-12T03:13:54.043Z,2.66
2017-12-12T03:14:34.557Z,2.64
2017-12-12T03:15:15.068Z,2.63
2017-12-12T03:15:55.587Z,2.6
2017-12-12T03:16:36.092Z,2.63
2017-12-12T03:17:16.609Z,2.66
2017-12-12T03:17:57.139Z,2.64
2017-12-12T03:18:37.641Z,2.6
2017-12-12T03:19:18.151Z,2.61
2017-12-12T03:19:58.657Z,2.56
2017-12-12T03:20:39.176Z,2.66
2017-12-12T03:21:19.681Z,2.63
2017-12-12T03:22:00.245Z,2.66
2017-12-12T03:22:40.711Z,2.67
2017-12-12T03:23:21.224Z,2.61
2017-12-12T03:24:01.732Z,2.66
2017-12-12T03:24:42.243Z,2.67
2017-12-12T03:25:22.811Z,2.64
2017-12-12T03:26:03.319Z,2.61
2017-12-12T03:26:43.813Z,2.67
2017-12-12T03:27:24.326Z,2.59
2017-12-12T03:28:04.819Z,2.6
2017-12-12T03:28:45.317Z,2.59
2017-12-12T03:29:25.866Z,2.67
2017-12-12T03:30:06.331Z,2.63
2017-12-12T03:30:46.857Z,2.66
2017-12-12T03:31:27.361Z,2.69
2017-12-12T03:32:07.864Z,2.63
2017-12-12T03:32:48.392Z,2.66
2017-12-12T03:33:28.889Z,2.72
2017-12-12T03:34:09.422Z,2.75
2017-12-12T03:34:49.927Z,2.72
2017-12-12T03:35:30.485Z,2.72
2017-12-12T03:36:10.958Z,2.69
2017-12-12T03:36:51.472Z,2.71
2017-12-12T03:37:32.002Z,2.78
2017-12-12T03:38:12.543Z,2.74
2017-12-12T03:38:53.020Z,2.79
2017-12-12T03:39:33.540Z,2.78
2017-12-12T03:40:14.045Z,2.77
2017-12-12T03:40:54.559Z,2.77
2017-12-12T03:41:35.070Z,2.74
2017-12-12T03:42:15.573Z,2.72
2017-12-12T03:42:56.093Z,2.84
2017-12-12T03:43:36.625Z,2.79
2017-12-12T03:44:17.103Z,2.78
2017-12-12T03:44:57.610Z,2.77
2017-12-12T03:45:38.132Z,2.81
2017-12-12T03:46:18.634Z,2.82
2017-12-12T03:46:59.163Z,2.72
2017-12-12T03:47:39.636Z,2.81
2017-12-12T03:48:20.139Z,2.77
2017-12-12T03:49:00.632Z,2.82
2017-12-12T03:49:41.171Z,2.82
2017-12-12T03:50:21.689Z,2.81
2017-12-12T03:51:02.177Z,2.85
2017-12-12T03:51:42.686Z,2.84
2017-12-12T03:52:23.185Z,2.85
2017-12-12T03:53:03.736Z,2.74
2017-12-12T03:53:44.263Z,2.84
2017-12-12T03:54:24.757Z,2.87
2017-12-12T03:55:05.275Z,2.89
2017-12-12T03:55:45.770Z,2.9
2017-12-12T03:56:26.299Z,2.9
2017-12-12T03:57:06.814Z,2.79
2017-12-12T03:57:47.320Z,2.9
2017-12-12T03:58:27.829Z,2.79
2017-12-12T03:59:08.342Z,2.95
2017-12-12T03:59:48.831Z,2.82
2017-12-12T04:00:29.445Z,2.89
2017-12-12T04:01:09.879Z,2.96
2017-12-12T04:01:50.402Z,2.93
2017-12-12T04:02:30.892Z,2.92
2017-12-12T04:03:11.430Z,2.87
2017-12-12T04:03:51.930Z,2.92
2017-12-12T04:04:32.454Z,2.85
2017-12-12T04:05:12.946Z,2.95
2017-12-12T04:05:53.463Z,2.87
2017-12-12T04:06:33.945Z,2.78
2017-12-12T04:07:14.424Z,2.95
2017-12-12T04:07:54.925Z,2.92
2017-12-12T04:08:35.460Z,2.85
2017-12-12T04:09:15.958Z,2.87
2017-12-12T04:09:56.498Z,2.89
2017-12-12T04:10:36.986Z,2.82
2017-12-12T04:11:17.513Z,2.85
2017-12-12T04:11:57.981Z,2.89
2017-12-12T04:12:38.506Z,2.89
2017-12-12T04:13:19.070Z,2.87
2017-12-12T04:13:59.545Z,2.93
2017-12-12T04:14:40.038Z,2.92
2017-12-12T04:15:20.541Z,2.95
2017-12-12T04:16:01.026Z,2.87
2017-12-12T04:16:41.532Z,2.84
2017-12-12T04:17:22.016Z,2.9
2017-12-12T04:18:02.535Z,2.9
2017-12-12T04:18:43.052Z,2.9
2017-12-12T04:19:23.538Z,2.96
2017-12-12T04:20:04.041Z,2.9
2017-12-12T04:20:44.558Z,2.93
2017-12-12T04:21:25.028Z,2.96
2017-12-12T04:22:05.644Z,2.89
2017-12-12T04:22:46.157Z,2.97
2017-12-12T04:23:26.640Z,2.92
2017-12-12T04:24:07.154Z,2.93
2017-12-12T04:24:47.675Z,2.84
2017-12-12T04:25:28.179Z,2.84
2017-12-12T04:26:08.681Z,2.84
2017-12-12T04:26:49.165Z,2.84
2017-12-12T04:27:29.722Z,2.85
2017-12-12T04:28:10.213Z,2.78
2017-12-12T04:28:50.751Z,2.95
2017-12-12T04:29:31.302Z,2.85
2017-12-12T04:30:11.786Z,2.92
2017-12-12T04:30:52.304Z,2.95
2017-12-12T04:31:32.808Z,2.82
2017-12-12T04:32:13.286Z,2.9
2017-12-12T04:32:53.814Z,2.93
2017-12-12T04:33:34.289Z,2.87
2017-12-12T04:34:14.791Z,2.92
2017-12-12T04:34:55.328Z,2.97
2017-12-12T04:35:35.793Z,2.9
2017-12-12T04:36:16.299Z,2.92
2017-12-12T04:36:56.824Z,3
2017-12-12T04:37:37.327Z,2.97
2017-12-12T04:38:17.822Z,2.92
2017-12-12T04:38:58.317Z,2.95
2017-12-12T04:39:38.816Z,2.96
2017-12-12T04:40:19.287Z,2.89
2017-12-12T04:40:59.757Z,2.96
2017-12-12T04:41:40.285Z,2.92
2017-12-12T04:42:20.759Z,2.9
2017-12-12T04:43:01.277Z,2.97
2017-12-12T04:43:41.777Z,2.96
2017-12-12T04:44:22.261Z,2.97
2017-12-12T04:45:02.778Z,2.96
2017-12-12T04:45:43.296Z,2.97
2017-12-12T04:46:23.800Z,3
2017-12-12T04:47:04.314Z,2.96
2017-12-12T04:47:44.836Z,2.95
2017-12-12T04:48:25.326Z,2.97
2017-12-12T04:49:05.820Z,2.96
2017-12-12T04:49:46.326Z,2.97
2017-12-12T04:50:26.852Z,2.92
2017-12-12T04:51:07.355Z,3.06
2017-12-12T04:51:47.882Z,3.11
2017-12-12T04:52:28.374Z,3.02
2017-12-12T04:53:08.852Z,3.06
2017-12-12T04:53:49.390Z,3.11
2017-12-12T04:54:29.869Z,3.05
2017-12-12T04:55:10.360Z,3.05
2017-12-12T04:55:50.891Z,3.1
2017-12-12T04:56:31.369Z,3.08
2017-12-12T04:57:11.844Z,3.08
2017-12-12T04:57:52.388Z,3.14
2017-12-12T04:58:32.876Z,3.17
2017-12-12T04:59:13.430Z,3.14
2017-12-12T04:59:53.930Z,3.17
2017-12-12T05:00:36.267Z,3.15
2017-12-12T05:01:16.787Z,3.15
2017-12-12T05:01:57.325Z,3.14
2017-12-12T05:02:37.821Z,3.11
2017-12-12T05:03:18.360Z,3.13
2017-12-12T05:03:58.876Z,3.15
2017-12-12T05:04:39.373Z,3.14
2017-12-12T05:05:19.864Z,3.13
2017-12-12T05:06:00.364Z,3.14
2017-12-12T05:06:40.830Z,3.13
2017-12-12T05:07:21.560Z,3.18
2017-12-12T05:08:02.066Z,3.23
2017-12-12T05:08:42.652Z,3.18
2017-12-12T05:09:26.100Z,3.17
2017-12-12T05:10:10.041Z,3.2
2017-12-12T05:10:50.916Z,3.23
2017-12-12T05:11:31.176Z,3.26
2017-12-12T05:12:11.712Z,3.28
2017-12-12T05:12:52.271Z,3.21
2017-12-12T05:13:32.808Z,3.17
2017-12-12T05:14:13.386Z,3.31
2017-12-12T05:14:53.936Z,3.18
2017-12-12T05:15:36.358Z,3.2
2017-12-12T05:16:16.877Z,3.21
2017-12-12T05:16:57.494Z,3.24
2017-12-12T05:17:38.006Z,3.24
2017-12-12T05:18:18.502Z,3.24
2017-12-12T05:18:59.032Z,3.18
2017-12-12T05:19:42.464Z,3.21
2017-12-12T05:20:22.943Z,3.17
2017-12-12T05:21:03.401Z,3.24
2017-12-12T05:21:43.896Z,3.26
2017-12-12T05:22:24.415Z,3.21
2017-12-12T05:23:04.951Z,3.17
2017-12-12T05:23:45.439Z,3.23
2017-12-12T05:24:25.971Z,3.23
2017-12-12T05:25:06.490Z,3.32
2017-12-12T05:25:47.283Z,3.2
2017-12-12T05:26:27.808Z,3.31
2017-12-12T05:27:08.384Z,3.24
2017-12-12T05:27:48.884Z,3.24
2017-12-12T05:28:29.394Z,3.28
2017-12-12T05:29:09.902Z,3.18
2017-12-12T05:29:50.458Z,3.17
2017-12-12T05:30:30.976Z,3.23
2017-12-12T05:31:11.457Z,3.13
2017-12-12T05:31:51.998Z,3.18
2017-12-12T05:32:32.511Z,3.17
2017-12-12T05:33:13.100Z,3.1
2017-12-12T05:33:56.217Z,3.13
2017-12-12T05:34:36.762Z,3.02
2017-12-12T05:35:17.314Z,2.97
2017-12-12T05:35:57.839Z,2.96
2017-12-12T05:36:38.368Z,2.95
2017-12-12T05:37:18.865Z,2.99
2017-12-12T05:37:59.379Z,2.96
2017-12-12T05:38:41.867Z,2.95
2017-12-12T05:39:22.351Z,2.95
2017-12-12T05:40:02.898Z,2.95
2017-12-12T05:40:43.433Z,2.84
2017-12-12T05:41:23.956Z,2.81
2017-12-12T05:42:04.540Z,2.9
2017-12-12T05:42:45.071Z,2.89
2017-12-12T05:43:25.565Z,2.9
2017-12-12T05:44:07.996Z,2.87
2017-12-12T05:44:48.517Z,2.79
2017-12-12T05:45:29.143Z,2.92
2017-12-12T05:46:09.649Z,2.81
2017-12-12T05:46:50.314Z,2.84
2017-12-12T05:47:30.874Z,2.77
2017-12-12T05:48:13.281Z,2.78
2017-12-12T05:48:53.835Z,2.77
2017-12-12T05:49:34.379Z,2.84
2017-12-12T05:50:15.055Z,2.77
2017-12-12T05:50:55.487Z,2.82
2017-12-12T05:51:36.006Z,2.78
2017-12-12T05:52:18.357Z,2.96
2017-12-12T05:53:00.777Z,2.93
2017-12-12T05:53:41.335Z,2.87
2017-12-12T05:54:21.935Z,2.87
2017-12-12T05:55:02.470Z,2.85
2017-12-12T05:55:43.060Z,2.96
2017-12-12T05:56:23.527Z,2.96
2017-12-12T05:57:04.220Z,2.9
2017-12-12T05:57:44.774Z,2.97
2017-12-12T05:58:25.203Z,2.96
2017-12-12T05:59:05.985Z,2.96
2017-12-12T05:59:46.823Z,2.95
2017-12-12T06:00:27.799Z,2.93
2017-12-12T06:01:09.931Z,2.99
2017-12-12T06:01:52.790Z,2.93
2017-12-12T06:02:39.792Z,3
2017-12-12T06:03:22.311Z,2.93
2017-12-12T06:04:06.443Z,2.97
2017-12-12T06:04:54.014Z,2.99
2017-12-12T06:05:37.542Z,2.95
2017-12-12T06:06:18.109Z,2.96
2017-12-12T06:07:00.497Z,2.97
2017-12-12T06:09:20.205Z,2.93
2017-12-12T06:10:00.972Z,2.96
2017-12-12T06:10:41.367Z,3.08
2017-12-12T06:11:22.185Z,3.08
2017-12-12T06:12:02.682Z,3.03
2017-12-12T06:12:43.176Z,3.05
2017-12-12T06:13:23.662Z,3.06
2017-12-12T06:14:04.241Z,3.03
2017-12-12T06:14:44.888Z,3.1
2017-12-12T06:15:25.426Z,3.08
2017-12-12T06:16:06.298Z,3.1
2017-12-12T06:16:47.527Z,3.15
2017-12-12T06:17:28.100Z,3.17
2017-12-12T06:18:10.527Z,3.17
2017-12-12T06:18:51.120Z,3.13
2017-12-12T06:19:31.657Z,3.17
2017-12-12T06:20:12.199Z,3.18
2017-12-12T06:20:52.799Z,3.18
2017-12-12T06:21:33.388Z,3.18
2017-12-12T06:22:13.831Z,3.21
2017-12-12T06:22:54.307Z,3.14
2017-12-12T06:23:34.838Z,3.17
2017-12-12T06:24:15.420Z,3.28
2017-12-12T06:24:55.919Z,3.21
2017-12-12T06:25:36.456Z,3.21
2017-12-12T06:26:17.010Z,3.15
2017-12-12T06:26:57.559Z,3.29
2017-12-12T06:27:38.203Z,3.21
2017-12-12T06:28:18.652Z,3.24
2017-12-12T06:28:59.212Z,3.2
2017-12-12T06:29:39.779Z,3.24
2017-12-12T06:30:20.369Z,3.23
2017-12-12T06:31:00.891Z,3.18
2017-12-12T06:31:41.390Z,3.28
2017-12-12T06:32:21.943Z,3.24
2017-12-12T06:33:02.495Z,3.24
2017-12-12T06:33:43.060Z,3.26
2017-12-12T06:34:23.596Z,3.26
2017-12-12T06:35:04.165Z,3.24
2017-12-12T06:35:44.938Z,3.28
2017-12-12T06:36:25.730Z,3.28
2017-12-12T06:37:06.449Z,3.21
2017-12-12T06:37:47.090Z,3.26
2017-12-12T06:38:27.592Z,3.23
2017-12-12T06:39:08.041Z,3.24
2017-12-12T06:39:48.653Z,3.23
2017-12-12T06:40:29.152Z,3.35
2017-12-12T06:41:09.668Z,3.23
2017-12-12T06:41:50.279Z,3.36
2017-12-12T06:42:30.798Z,3.31
2017-12-12T06:43:11.403Z,3.35
2017-12-12T06:43:51.939Z,3.31
2017-12-12T06:44:32.451Z,3.35
2017-12-12T06:45:13.090Z,3.33
2017-12-12T06:45:53.516Z,3.36
2017-12-12T06:46:34.056Z,3.39
2017-12-12T06:47:14.582Z,3.45
2017-12-12T06:47:55.067Z,3.39
2017-12-12T06:48:35.652Z,3.42
2017-12-12T06:49:16.209Z,3.4
2017-12-12T06:49:56.744Z,3.48
2017-12-12T06:50:37.516Z,3.48
2017-12-12T06:51:18.024Z,3.51
2017-12-12T06:51:58.521Z,3.51
2017-12-12T06:52:39.074Z,3.54
2017-12-12T06:53:19.604Z,3.45
2017-12-12T06:54:00.109Z,3.51
2017-12-12T06:54:40.665Z,3.45
2017-12-12T06:55:21.145Z,3.5
2017-12-12T06:56:01.671Z,3.57
2017-12-12T06:56:42.246Z,3.57
2017-12-12T06:57:22.732Z,3.57
2017-12-12T06:58:03.271Z,3.54
2017-12-12T06:58:43.816Z,3.54
2017-12-12T06:59:24.408Z,3.57
2017-12-12T07:00:04.969Z,3.54
2017-12-12T07:00:45.567Z,3.51
2017-12-12T07:01:26.020Z,3.51
2017-12-12T07:02:06.548Z,3.48
2017-12-12T07:02:47.095Z,3.54
2017-12-12T07:03:27.680Z,3.57
2017-12-12T07:04:08.163Z,3.57
2017-12-12T07:04:48.820Z,3.54
2017-12-12T07:05:29.298Z,3.5
2017-12-12T07:06:09.915Z,3.57
2017-12-12T07:06:50.453Z,3.65
2017-12-12T07:07:31.023Z,3.52
2017-12-12T07:08:11.538Z,3.55
2017-12-12T07:08:52.029Z,3.58
2017-12-12T07:09:32.630Z,3.58
2017-12-12T07:10:13.179Z,3.61
2017-12-12T07:10:53.691Z,3.55
2017-12-12T07:11:34.240Z,3.6
2017-12-12T07:12:14.866Z,3.54
2017-12-12T07:12:55.529Z,3.57
2017-12-12T07:13:36.009Z,3.58
2017-12-12T07:14:16.649Z,3.54
2017-12-12T07:14:57.316Z,3.54
2017-12-12T07:15:37.951Z,3.58
2017-12-12T07:16:18.643Z,3.57
2017-12-12T07:16:59.037Z,3.52
2017-12-12T07:17:39.603Z,3.51
2017-12-12T07:18:20.295Z,3.62
2017-12-12T07:19:00.863Z,3.58
2017-12-12T07:19:41.440Z,3.62
2017-12-12T07:20:22.064Z,3.55
2017-12-12T07:21:02.509Z,3.6
2017-12-12T07:21:43.052Z,3.54
2017-12-12T07:22:23.590Z,3.6
2017-12-12T07:23:04.126Z,3.58
2017-12-12T07:23:44.682Z,3.51
2017-12-12T07:24:25.334Z,3.52
2017-12-12T07:25:05.812Z,3.52
2017-12-12T07:25:46.441Z,3.57
2017-12-12T07:26:27.046Z,3.57
2017-12-12T07:27:07.635Z,3.54
2017-12-12T07:27:48.157Z,3.54
2017-12-12T07:28:28.699Z,3.52
2017-12-12T07:29:09.202Z,3.57
2017-12-12T07:29:49.771Z,3.62
2017-12-12T07:30:30.327Z,3.52
2017-12-12T07:31:10.927Z,3.65
2017-12-12T07:31:51.396Z,3.54
2017-12-12T07:32:31.906Z,3.6
2017-12-12T07:33:12.504Z,3.62
2017-12-12T07:33:52.987Z,3.6
2017-12-12T07:34:33.486Z,3.6
2017-12-12T07:35:14.048Z,3.58
2017-12-12T07:35:54.627Z,3.58
2017-12-12T07:36:35.220Z,3.55
2017-12-12T07:37:15.814Z,3.51
2017-12-12T07:37:56.347Z,3.5
2017-12-12T07:38:36.880Z,3.57
2017-12-12T07:39:17.532Z,3.54
2017-12-12T07:39:58.139Z,3.6
2017-12-12T07:40:38.756Z,3.6
2017-12-12T07:41:19.218Z,3.55
2017-12-12T07:41:59.657Z,3.55
2017-12-12T07:42:40.359Z,3.57
2017-12-12T07:43:20.886Z,3.55
2017-12-12T07:44:01.435Z,3.58
2017-12-12T07:44:42.031Z,3.6
2017-12-12T07:45:22.533Z,3.65
2017-12-12T07:46:03.096Z,3.73
2017-12-12T07:46:43.625Z,3.61
2017-12-12T07:47:24.087Z,3.61
2017-12-12T07:48:04.741Z,3.65
2017-12-12T07:48:45.403Z,3.69
2017-12-12T07:49:25.882Z,3.69
2017-12-12T07:50:06.380Z,3.73
2017-12-12T07:50:46.914Z,3.75
2017-12-12T07:51:27.498Z,3.68
2017-12-12T07:52:08.047Z,3.65
2017-12-12T07:52:48.753Z,3.75
2017-12-12T07:53:29.173Z,3.83
2017-12-12T07:54:09.750Z,3.78
2017-12-12T07:54:50.335Z,3.7
2017-12-12T07:55:30.849Z,3.76
2017-12-12T07:56:11.531Z,3.83
2017-12-12T07:56:52.102Z,3.83
2017-12-12T07:57:32.645Z,3.8
2017-12-12T07:58:13.195Z,3.87
2017-12-12T07:58:53.706Z,3.8
2017-12-12T07:59:34.286Z,3.8
2017-12-12T08:00:14.784Z,3.84
2017-12-12T08:00:55.375Z,3.84
2017-12-12T08:01:35.915Z,3.88
2017-12-12T08:02:16.430Z,3.83
2017-12-12T08:02:57.001Z,3.86
2017-12-12T08:03:37.560Z,3.87
2017-12-12T08:04:18.135Z,3.93
2017-12-12T08:04:58.709Z,3.96
2017-12-12T08:05:39.354Z,3.91
2017-12-12T08:06:19.872Z,3.93
2017-12-12T08:07:00.409Z,3.94
2017-12-12T08:07:40.920Z,3.91
2017-12-12T08:08:21.450Z,3.88
2017-12-12T08:09:02.026Z,3.9
2017-12-12T08:09:42.616Z,3.93
2017-12-12T08:10:23.073Z,3.86
2017-12-12T08:11:03.630Z,3.91
2017-12-12T08:11:44.182Z,3.94
2017-12-12T08:12:24.761Z,3.88
2017-12-12T08:13:05.309Z,3.86
2017-12-12T08:13:45.781Z,3.96
2017-12-12T08:14:26.367Z,3.87
2017-12-12T08:15:06.859Z,3.91
2017-12-12T08:15:47.397Z,3.94
2017-12-12T08:16:27.921Z,3.94
2017-12-12T08:17:08.447Z,3.91
2017-12-12T08:17:48.972Z,3.93
2017-12-12T08:18:29.666Z,3.9
2017-12-12T08:19:10.226Z,3.94
2017-12-12T08:19:50.826Z,3.97
2017-12-12T08:20:31.389Z,3.98
2017-12-12T08:21:11.910Z,3.9
2017-12-12T08:21:52.427Z,3.94
2017-12-12T08:22:32.967Z,3.94
2017-12-12T08:23:13.491Z,3.87
2017-12-12T08:23:54.020Z,3.91
2017-12-12T08:24:34.539Z,3.84
2017-12-12T08:25:15.049Z,3.9
2017-12-12T08:25:55.668Z,3.87
2017-12-12T08:26:36.209Z,3.96
2017-12-12T08:27:16.770Z,3.97
2017-12-12T08:27:57.336Z,3.94
2017-12-12T08:28:37.877Z,3.91
2017-12-12T08:29:18.505Z,3.87
2017-12-12T08:29:59.013Z,3.87
2017-12-12T08:30:39.520Z,3.87
2017-12-12T08:31:20.065Z,3.88
2017-12-12T08:32:00.644Z,3.84
2017-12-12T08:32:41.173Z,3.9
2017-12-12T08:33:21.685Z,3.96
2017-12-12T08:34:02.221Z,3.93
2017-12-12T08:34:42.759Z,3.98
2017-12-12T08:35:23.279Z,3.91
2017-12-12T08:36:03.848Z,3.79
2017-12-12T08:36:44.398Z,3.96
2017-12-12T08:37:24.941Z,3.79
2017-12-12T08:38:05.498Z,3.91
2017-12-12T08:38:46.053Z,3.91
2017-12-12T08:39:26.508Z,3.96
2017-12-12T08:40:07.030Z,3.97
2017-12-12T08:40:47.561Z,3.93
2017-12-12T08:41:28.082Z,3.94
2017-12-12T08:42:08.664Z,3.86
2017-12-12T08:42:49.328Z,3.98
2017-12-12T08:43:29.868Z,3.91
2017-12-12T08:44:10.380Z,3.87
2017-12-12T08:44:50.932Z,3.91
2017-12-12T08:45:31.439Z,3.76
2017-12-12T08:46:12.103Z,3.94
2017-12-12T08:46:52.568Z,3.83
2017-12-12T08:47:33.091Z,3.79
2017-12-12T08:48:13.648Z,3.83
2017-12-12T08:48:54.147Z,3.9
2017-12-12T08:49:34.654Z,3.84
2017-12-12T08:50:15.311Z,3.86
2017-12-12T08:50:55.823Z,3.8
2017-12-12T08:51:36.390Z,3.94
2017-12-12T08:52:16.934Z,3.93
2017-12-12T08:52:57.507Z,3.86
2017-12-12T08:53:38.063Z,3.87
2017-12-12T08:54:18.535Z,3.88
2017-12-12T08:54:59.123Z,3.96
2017-12-12T08:55:39.616Z,3.97
2017-12-12T08:56:20.153Z,3.97
2017-12-12T08:57:00.707Z,3.96
2017-12-12T08:57:41.254Z,3.93
2017-12-12T08:58:21.794Z,3.94
2017-12-12T08:59:02.366Z,3.96
2017-12-12T08:59:42.875Z,3.96
2017-12-12T09:00:23.335Z,4.08
2017-12-12T09:01:03.878Z,4.02
2017-12-12T09:01:44.422Z,3.94
2017-12-12T09:02:24.946Z,3.96
2017-12-12T09:03:05.459Z,4.05
2017-12-12T09:03:46.028Z,4.08
2017-12-12T09:04:26.556Z,4.08